createdAt,value
2023-02-01T00:01:34.684Z,11.34
2023-02-01T00:07:19.562Z,11.34
2023-02-01T00:13:03.273Z,11.35
2023-02-01T00:18:47.882Z,11.34
2023-02-01T00:24:31.845Z,11.34
2023-02-01T00:30:16.521Z,11.37
2023-02-01T00:36:01.957Z,11.36
2023-02-01T00:41:45.824Z,11.35
2023-02-01T00:47:29.641Z,11.34
2023-02-01T00:53:13.465Z,11.33
2023-02-01T00:58:57.361Z,11.33
2023-02-01T01:04:41.233Z,11.35
2023-02-01T01:10:25.129Z,11.32
2023-02-01T01:16:09.945Z,11.3
2023-02-01T01:21:54.850Z,11.28
2023-02-01T01:27:38.521Z,11.26
2023-02-01T01:33:22.507Z,11.26
2023-02-01T01:39:06.178Z,11.26
2023-02-01T01:45:01.383Z,11.23
2023-02-01T01:50:47.825Z,11.24
2023-02-01T01:56:32.846Z,11.21
2023-02-01T02:02:17.038Z,11.2
2023-02-01T02:08:01.630Z,11.17
2023-02-01T02:13:47.219Z,11.13
2023-02-01T02:19:42.089Z,11.13
2023-02-01T02:25:38.287Z,11.15
2023-02-01T02:31:34.954Z,11.18
2023-02-01T02:37:24.301Z,11.19
2023-02-01T02:43:12.975Z,11.17
2023-02-01T02:49:01.756Z,11.15
2023-02-01T02:54:47.667Z,11.11
2023-02-01T03:00:33.683Z,11.12
2023-02-01T03:06:18.547Z,11.13
2023-02-01T03:12:05.214Z,11.09
2023-02-01T03:17:51.331Z,11.09
2023-02-01T03:23:36.931Z,11.07
2023-02-01T03:29:25.151Z,11.04
2023-02-01T03:35:09.521Z,11.05
2023-02-01T03:40:56.900Z,11.01
2023-02-01T03:46:44.326Z,10.98
2023-02-01T03:52:29.734Z,10.96
2023-02-01T03:58:14.561Z,10.95
2023-02-01T04:03:58.622Z,10.94
2023-02-01T04:09:42.449Z,10.89
2023-02-01T04:15:26.295Z,10.82
2023-02-01T04:21:10.207Z,10.8
2023-02-01T04:26:54.136Z,10.75
2023-02-01T04:32:38.453Z,10.75
2023-02-01T04:38:25.688Z,10.72
2023-02-01T04:44:13.855Z,10.7
2023-02-01T04:49:57.731Z,10.66
2023-02-01T04:55:41.653Z,10.6
2023-02-01T05:01:25.519Z,10.59
2023-02-01T05:07:09.644Z,10.57
2023-02-01T05:12:53.471Z,10.52
2023-02-01T05:18:37.326Z,10.49
2023-02-01T05:24:21.232Z,10.46
2023-02-01T05:30:05.958Z,10.44
2023-02-01T05:35:49.682Z,10.42
2023-02-01T05:41:33.644Z,10.4
2023-02-01T05:47:17.562Z,10.37
2023-02-01T05:53:01.423Z,10.34
2023-02-01T05:58:45.287Z,10.31
2023-02-01T06:04:29.255Z,10.31
2023-02-01T06:10:14.038Z,10.33
2023-02-01T06:15:57.841Z,10.3
2023-02-01T06:21:41.784Z,10.28
2023-02-01T06:27:25.730Z,10.25
2023-02-01T06:33:09.486Z,10.23
2023-02-01T06:38:53.202Z,10.18
2023-02-01T06:44:36.941Z,10.15
2023-02-01T06:50:21.480Z,10.11
2023-02-01T06:56:07.324Z,10.09
2023-02-01T07:01:51.191Z,10.09
2023-02-01T07:07:35.227Z,10.06
2023-02-01T07:13:19.121Z,10.04
2023-02-01T07:19:07.486Z,10.05
2023-02-01T07:24:51.247Z,10.06
2023-02-01T07:30:35.031Z,10.07
2023-02-01T07:36:19.690Z,10.11
2023-02-01T07:42:03.805Z,10.18
2023-02-01T07:47:52.291Z,10.26
2023-02-01T07:53:36.517Z,10.28
2023-02-01T07:59:20.433Z,10.34
2023-02-01T08:05:04.457Z,10.37
2023-02-01T08:10:48.283Z,10.4
2023-02-01T08:16:32.382Z,10.47
2023-02-01T08:22:16.411Z,10.55
2023-02-01T08:28:00.389Z,10.61
2023-02-01T08:33:44.762Z,10.71
2023-02-01T08:39:28.669Z,10.73
2023-02-01T08:45:13.035Z,10.77
2023-02-01T08:50:56.762Z,10.83
2023-02-01T08:56:40.760Z,10.86
2023-02-01T09:02:24.744Z,10.98
2023-02-01T09:08:09.037Z,11.05
2023-02-01T09:13:52.874Z,11.13
2023-02-01T09:19:36.690Z,11.16
2023-02-01T09:25:21.975Z,11.22
2023-02-01T09:31:06.685Z,11.29
2023-02-01T09:36:51.103Z,11.28
2023-02-01T09:42:44.057Z,11.33
2023-02-01T09:48:31.768Z,11.39
2023-02-01T09:54:17.149Z,11.45
2023-02-01T10:00:03.655Z,11.5
2023-02-01T10:06:07.418Z,11.58
2023-02-01T10:11:56.899Z,11.69
2023-02-01T10:17:48.548Z,11.71
2023-02-01T10:23:42.717Z,11.76
2023-02-01T10:29:30.346Z,11.82
2023-02-01T10:35:16.777Z,11.9
2023-02-01T10:41:03.687Z,11.95
2023-02-01T10:46:47.517Z,12
2023-02-01T10:52:35.847Z,12.04
2023-02-01T10:58:20.981Z,12.12
2023-02-01T11:04:06.072Z,12.19
2023-02-01T11:09:53.995Z,12.2
2023-02-01T11:15:37.837Z,12.26
2023-02-01T11:21:22.515Z,12.32
2023-02-01T11:27:11.943Z,12.4
2023-02-01T11:33:13.247Z,12.52
2023-02-01T11:39:02.764Z,12.62
2023-02-01T11:44:48.350Z,12.8
2023-02-01T11:50:39.214Z,12.92
2023-02-01T11:56:27.261Z,13.06
2023-02-01T12:02:21.313Z,13.17
2023-02-01T12:08:15.606Z,13.17
2023-02-01T12:14:05.006Z,13.22
2023-02-01T12:19:57.716Z,13.28
2023-02-01T12:25:49.092Z,13.33
2023-02-01T12:31:42.720Z,13.47
2023-02-01T12:37:37.198Z,13.56
2023-02-01T12:43:27.923Z,13.62
2023-02-01T12:49:15.005Z,13.8
2023-02-01T12:55:01.928Z,13.9
2023-02-01T13:00:50.661Z,13.95
2023-02-01T13:06:37.609Z,14.06
2023-02-01T13:12:23.029Z,14.2
2023-02-01T13:18:07.873Z,14.2
2023-02-01T13:23:53.149Z,14.27
2023-02-01T13:29:38.720Z,14.31
2023-02-01T13:35:33.129Z,14.34
2023-02-01T13:41:24.290Z,14.39
2023-02-01T13:47:13.682Z,14.44
2023-02-01T13:52:59.001Z,14.36
2023-02-01T13:58:44.227Z,14.33
2023-02-01T14:04:39.583Z,14.35
2023-02-01T14:10:35.106Z,14.31
2023-02-01T14:16:19.413Z,14.24
2023-02-01T14:22:09.754Z,14.29
2023-02-01T14:27:54.393Z,14.34
2023-02-01T14:33:42.412Z,14.45
2023-02-01T14:39:27.911Z,14.48
2023-02-01T14:45:24.021Z,14.51
2023-02-01T14:51:12.126Z,14.59
2023-02-01T14:56:56.172Z,14.62
2023-02-01T15:02:40.508Z,14.65
2023-02-01T15:08:28.970Z,14.63
2023-02-01T15:14:16.150Z,14.6
2023-02-01T15:20:00.942Z,14.56
2023-02-01T15:25:52.821Z,14.43
2023-02-01T15:31:38.454Z,14.24
2023-02-01T15:37:23.342Z,14.14
2023-02-01T15:43:12.875Z,14.05
2023-02-01T15:48:57.070Z,13.95
2023-02-01T15:54:43.933Z,13.81
2023-02-01T16:00:29.959Z,13.71
2023-02-01T16:06:18.911Z,13.64
2023-02-01T16:12:03.865Z,13.56
2023-02-01T16:17:47.793Z,13.46
2023-02-01T16:23:32.570Z,13.37
2023-02-01T16:29:16.457Z,13.28
2023-02-01T16:35:00.928Z,13.22
2023-02-01T16:40:45.502Z,13.13
2023-02-01T16:46:33.099Z,13.09
2023-02-01T16:52:20.369Z,12.99
2023-02-01T16:58:06.873Z,12.94
2023-02-01T17:03:50.757Z,12.86
2023-02-01T17:09:34.889Z,12.82
2023-02-01T17:15:19.211Z,12.75
2023-02-01T17:21:05.435Z,12.74
2023-02-01T17:26:49.893Z,12.73
2023-02-01T17:32:34.138Z,12.72
2023-02-01T17:38:19.818Z,12.73
2023-02-01T17:44:03.653Z,12.67
2023-02-01T17:49:47.905Z,12.64
2023-02-01T17:55:33.909Z,12.61
2023-02-01T18:01:18.517Z,12.6
2023-02-01T18:07:03.851Z,12.58
2023-02-01T18:12:47.812Z,12.56
2023-02-01T18:18:31.642Z,12.53
2023-02-01T18:24:16.901Z,12.52
2023-02-01T18:30:01.640Z,12.48
2023-02-01T18:35:46.272Z,12.46
2023-02-01T18:41:32.083Z,12.4
2023-02-01T18:47:16.604Z,12.34
2023-02-01T18:53:01.880Z,12.31
2023-02-01T18:58:46.120Z,12.38
2023-02-01T19:04:29.992Z,12.37
2023-02-01T19:10:16.508Z,12.32
2023-02-01T19:16:05.066Z,12.27
2023-02-01T19:21:50.344Z,12.26
2023-02-01T19:27:34.572Z,12.25
2023-02-01T19:33:18.474Z,12.26
2023-02-01T19:39:02.225Z,12.25
2023-02-01T19:44:45.959Z,12.22
2023-02-01T19:50:29.694Z,12.19
2023-02-01T19:56:13.566Z,12.16
2023-02-01T20:01:57.330Z,12.12
2023-02-01T20:07:41.651Z,12.13
2023-02-01T20:13:25.570Z,12.07
2023-02-01T20:19:09.477Z,12.03
2023-02-01T20:24:54.402Z,11.99
2023-02-01T20:30:39.309Z,12.01
2023-02-01T20:36:23.270Z,12.02
2023-02-01T20:42:07.428Z,12.02
2023-02-01T20:47:52.803Z,11.99
2023-02-01T20:53:36.871Z,11.96
2023-02-01T20:59:21.277Z,11.96
2023-02-01T21:05:05.777Z,11.96
2023-02-01T21:10:58.982Z,11.95
2023-02-01T21:16:42.860Z,11.95
2023-02-01T21:22:26.902Z,11.91
2023-02-01T21:28:11.250Z,11.88
2023-02-01T21:33:55.006Z,11.92
2023-02-01T21:39:39.409Z,11.97
2023-02-01T21:45:23.543Z,11.91
2023-02-01T21:51:08.609Z,11.88
2023-02-01T21:56:52.522Z,11.87
2023-02-01T22:02:36.870Z,11.85
2023-02-01T22:08:21.381Z,11.84
2023-02-01T22:14:05.680Z,11.82
2023-02-01T22:19:49.751Z,11.8
2023-02-01T22:25:33.798Z,11.8
2023-02-01T22:31:19.598Z,11.84
2023-02-01T22:37:03.729Z,11.85
2023-02-01T22:42:47.600Z,11.84
2023-02-01T22:48:34.043Z,11.82
2023-02-01T22:54:21.119Z,11.8
2023-02-01T23:00:06.393Z,11.78
2023-02-01T23:05:50.281Z,11.76
2023-02-01T23:11:33.894Z,11.73
2023-02-01T23:17:18.926Z,11.69
2023-02-01T23:23:02.825Z,11.68
2023-02-01T23:28:46.747Z,11.67
2023-02-01T23:34:30.535Z,11.7
2023-02-01T23:40:15.147Z,11.68
2023-02-01T23:46:01.292Z,11.67
2023-02-01T23:51:45.590Z,11.67
2023-02-01T23:57:29.494Z,11.67
